New Lyme, Ohio
Current Conditions -  °F | °C
As of 2:11 PM on Thursday 23 Oct 2014 (Local Time) from KHZY Reporting Station
Scattered Clouds Scattered Clouds  
Wind Chill: 55°   Ceiling: Unl
Heat Index: 55°   Visibility: 10mi
Dew Point: 42°   Wind: 10mph
Humidity: 62%   Direction: 300°WNW
Pressure: 30.14"   Gusts: 17mph
Location:  41.6051°N, 80.867°W
Report Text: KHZY 231811Z AUTO 30009G15KT 10SM SCT029 13/06 A3014 RMK AO2 T01280056
Loading
Personal Weather Stations






























Interactive Weather Map
Tropical Storm Tracking
New forecast layout! Learn more

10-Day Weather Forecast

Advertisements
Track Severe Weather on mobile